Time;durP1;ratioP1;P1;durP2;ratioP2;P2;SDS_P1;SDS_P2;PMS_P1;PMS_P2;Temp;Humidity;BMP_temperature;BMP_pressure;BME280_temperature;BME280_humidity;BME280_pressure;Samples;Min_cycle;Max_cycle;Signal;HPM_P1;HPM_P2
2022/03/31 00:01:31;;;;;;;1.00;1.00;;;;;;;;;;1831225;77;26266;-57
2022/03/31 00:03:59;;;;;;;0.80;0.80;;;;;;;;;;1833671;77;26270;-57
2022/03/31 00:06:26;;;;;;;0.80;0.80;;;;;;;;;;1848150;77;26289;-61
2022/03/31 00:08:53;;;;;;;0.82;0.82;;;;;;;;;;1835176;77;26351;-55
2022/03/31 00:11:20;;;;;;;1.00;1.00;;;;;;;;;;1829773;77;26314;-61
2022/03/31 00:13:48;;;;;;;0.90;0.90;;;;;;;;;;1832040;77;26336;-61
2022/03/31 00:16:16;;;;;;;0.82;0.82;;;;;;;;;;1843146;77;26324;-56
2022/03/31 00:18:43;;;;;;;0.93;0.93;;;;;;;;;;1841411;77;26750;-59
2022/03/31 00:21:11;;;;;;;0.80;0.80;;;;;;;;;;1840303;77;26584;-59
2022/03/31 00:23:38;;;;;;;0.80;0.80;;;;;;;;;;1832362;77;26280;-57
2022/03/31 00:26:06;;;;;;;0.80;0.80;;;;;;;;;;1824628;77;26275;-56
2022/03/31 00:28:34;;;;;;;0.70;0.70;;;;;;;;;;1822480;77;26277;-57
2022/03/31 00:31:01;;;;;;;0.70;0.70;;;;;;;;;;1827831;77;26262;-56
2022/03/31 00:33:28;;;;;;;0.80;0.80;;;;;;;;;;1836070;77;27418;-56
2022/03/31 00:35:55;;;;;;;0.90;0.90;;;;;;;;;;1830264;77;27226;-56
2022/03/31 00:38:23;;;;;;;0.70;0.70;;;;;;;;;;1833853;77;26223;-56
2022/03/31 00:40:51;;;;;;;0.70;0.70;;;;;;;;;;1833040;77;26332;-53
2022/03/31 00:43:18;;;;;;;1.22;0.80;;;;;;;;;;1840631;77;26770;-58
2022/03/31 00:45:48;;;;;;;0.85;0.85;;;;;;;;;;1831463;77;26749;-59
2022/03/31 00:48:17;;;;;;;0.88;0.80;;;;;;;;;;1824551;77;26355;-55
2022/03/31 00:50:44;;;;;;;0.80;0.80;;;;;;;;;;1833114;77;26290;-61
2022/03/31 00:53:12;;;;;;;1.62;0.80;;;;;;;;;;1826041;77;26375;-58
2022/03/31 00:55:39;;;;;;;0.98;0.98;;;;;;;;;;1839518;77;26741;-58
2022/03/31 00:58:07;;;;;;;1.90;0.80;;;;;;;;;;1844370;77;26979;-55
2022/03/31 01:00:34;;;;;;;1.35;0.85;;;;;;;;;;1834563;77;26265;-57
2022/03/31 01:03:03;;;;;;;0.90;0.90;;;;;;;;;;1832032;77;26579;-54
2022/03/31 01:05:30;;;;;;;0.80;0.80;;;;;;;;;;1835154;77;26739;-59
2022/03/31 01:07:58;;;;;;;0.60;0.60;;;;;;;;;;1850170;77;26335;-57
2022/03/31 01:10:25;;;;;;;0.80;0.80;;;;;;;;;;1844318;77;26361;-57
2022/03/31 01:12:52;;;;;;;0.70;0.70;;;;;;;;;;1824377;77;26736;-57
2022/03/31 01:15:20;;;;;;;0.80;0.80;;;;;;;;;;1830893;77;26669;-54
2022/03/31 01:17:49;;;;;;;0.70;0.70;;;;;;;;;;1831691;77;26276;-59
2022/03/31 01:20:20;;;;;;;0.70;0.70;;;;;;;;;;1831745;77;26359;-58
2022/03/31 01:22:49;;;;;;;0.90;0.90;;;;;;;;;;1829732;77;26238;-59
2022/03/31 01:25:16;;;;;;;0.80;0.80;;;;;;;;;;1832119;77;26288;-54
2022/03/31 01:27:44;;;;;;;0.90;0.90;;;;;;;;;;1836389;77;26426;-58
2022/03/31 01:30:13;;;;;;;0.75;0.70;;;;;;;;;;1837207;77;26262;-53
2022/03/31 01:32:41;;;;;;;0.62;0.62;;;;;;;;;;1835631;77;26222;-61
2022/03/31 01:35:09;;;;;;;0.70;0.70;;;;;;;;;;1831715;77;26410;-53
2022/03/31 01:37:36;;;;;;;0.80;0.80;;;;;;;;;;1831781;77;26249;-54
2022/03/31 01:40:04;;;;;;;0.70;0.70;;;;;;;;;;1828979;77;26277;-58
2022/03/31 01:42:32;;;;;;;0.60;0.60;;;;;;;;;;1831549;77;26772;-55
2022/03/31 01:44:59;;;;;;;0.70;0.70;;;;;;;;;;1832903;77;26831;-56
2022/03/31 01:47:26;;;;;;;0.80;0.80;;;;;;;;;;1831488;77;26305;-53
2022/03/31 01:49:54;;;;;;;0.70;0.70;;;;;;;;;;1832663;77;26671;-62
2022/03/31 01:52:22;;;;;;;0.80;0.80;;;;;;;;;;1846718;77;26346;-59
2022/03/31 01:54:49;;;;;;;0.70;0.70;;;;;;;;;;1832541;77;26941;-59
2022/03/31 01:57:17;;;;;;;0.70;0.70;;;;;;;;;;1833717;77;26370;-58
2022/03/31 01:59:45;;;;;;;0.50;0.50;;;;;;;;;;1835311;77;26757;-59
2022/03/31 02:02:12;;;;;;;0.50;0.50;;;;;;;;;;1830883;77;26349;-61
2022/03/31 02:04:43;;;;;;;0.80;0.80;;;;;;;;;;1828217;77;26806;-59
2022/03/31 02:07:11;;;;;;;0.50;0.50;;;;;;;;;;1837464;77;26340;-57
2022/03/31 02:09:39;;;;;;;0.70;0.70;;;;;;;;;;1832810;77;26379;-62
2022/03/31 02:12:07;;;;;;;0.65;0.65;;;;;;;;;;1834559;77;26275;-58
2022/03/31 02:14:37;;;;;;;0.55;0.55;;;;;;;;;;1837737;77;26769;-59
2022/03/31 02:17:05;;;;;;;0.82;0.82;;;;;;;;;;1837576;77;26733;-59
2022/03/31 02:19:32;;;;;;;0.62;0.62;;;;;;;;;;1831043;78;26270;-61
2022/03/31 02:22:00;;;;;;;0.78;0.78;;;;;;;;;;1833491;77;26285;-55
2022/03/31 02:24:27;;;;;;;0.70;0.70;;;;;;;;;;1838540;77;26780;-58
2022/03/31 02:26:55;;;;;;;0.55;0.55;;;;;;;;;;1833362;77;26262;-59
2022/03/31 02:29:22;;;;;;;0.75;0.75;;;;;;;;;;1823952;77;26310;-56
2022/03/31 02:31:49;;;;;;;0.60;0.60;;;;;;;;;;1820631;79;26777;-56
2022/03/31 02:34:17;;;;;;;0.60;0.60;;;;;;;;;;1821288;79;26998;-58
2022/03/31 02:36:45;;;;;;;0.80;0.80;;;;;;;;;;1823329;78;26385;-59
2022/03/31 02:39:13;;;;;;;0.68;0.68;;;;;;;;;;1818768;78;26385;-59
2022/03/31 02:41:40;;;;;;;0.70;0.70;;;;;;;;;;1826923;78;26796;-59
2022/03/31 02:44:07;;;;;;;0.62;0.62;;;;;;;;;;1818708;79;26658;-57
2022/03/31 02:46:35;;;;;;;0.60;0.60;;;;;;;;;;1830493;77;26403;-59
2022/03/31 02:49:04;;;;;;;0.57;0.57;;;;;;;;;;1814578;78;26657;-58
2022/03/31 02:51:31;;;;;;;0.85;0.85;;;;;;;;;;1823571;78;26305;-61
2022/03/31 02:56:43;;;;;;;0.62;0.62;;;;;;;;;;1817648;78;26324;-58
2022/03/31 02:59:11;;;;;;;0.60;0.60;;;;;;;;;;1823576;78;26290;-59
2022/03/31 03:01:38;;;;;;;0.70;0.70;;;;;;;;;;1821237;79;26215;-61
2022/03/31 03:04:08;;;;;;;0.70;0.70;;;;;;;;;;1819242;78;26351;-56
2022/03/31 03:06:34;;;;;;;0.60;0.60;;;;;;;;;;1830265;78;26769;-62
2022/03/31 03:09:01;;;;;;;0.68;0.68;;;;;;;;;;1816586;79;26906;-61
2022/03/31 03:11:29;;;;;;;0.60;0.60;;;;;;;;;;1820545;78;26314;-59
2022/03/31 03:13:56;;;;;;;0.90;0.90;;;;;;;;;;1820446;79;26247;-60
2022/03/31 03:16:25;;;;;;;0.70;0.70;;;;;;;;;;1822842;78;26290;-55
2022/03/31 03:18:55;;;;;;;0.80;0.80;;;;;;;;;;1828677;78;26761;-58
2022/03/31 03:21:22;;;;;;;0.82;0.80;;;;;;;;;;1820726;79;26298;-57
2022/03/31 03:23:49;;;;;;;0.70;0.70;;;;;;;;;;1817215;79;26294;-58
2022/03/31 03:26:17;;;;;;;0.70;0.70;;;;;;;;;;1824047;78;26392;-58
2022/03/31 03:28:44;;;;;;;0.70;0.70;;;;;;;;;;1834632;77;26373;-59
2022/03/31 03:31:12;;;;;;;0.70;0.70;;;;;;;;;;1833254;77;26277;-57
2022/03/31 03:33:40;;;;;;;0.90;0.90;;;;;;;;;;1831739;77;26687;-60
2022/03/31 03:36:12;;;;;;;0.68;0.68;;;;;;;;;;1834581;77;26360;-57
2022/03/31 03:38:40;;;;;;;0.70;0.70;;;;;;;;;;1838853;77;26737;-59
2022/03/31 03:41:08;;;;;;;0.72;0.72;;;;;;;;;;1837403;77;26258;-57
2022/03/31 03:43:36;;;;;;;1.57;0.90;;;;;;;;;;1834411;77;26336;-56
2022/03/31 03:46:03;;;;;;;0.80;0.80;;;;;;;;;;1832844;77;26270;-61
2022/03/31 03:48:31;;;;;;;0.80;0.80;;;;;;;;;;1816604;78;26398;-55
2022/03/31 03:50:58;;;;;;;0.98;0.70;;;;;;;;;;1832346;77;26671;-55
2022/03/31 03:53:26;;;;;;;0.93;0.88;;;;;;;;;;1835053;77;26282;-58
2022/03/31 03:55:54;;;;;;;0.80;0.80;;;;;;;;;;1831019;77;26300;-59
2022/03/31 03:58:22;;;;;;;1.12;1.02;;;;;;;;;;1847175;77;26769;-55
2022/03/31 04:00:49;;;;;;;0.90;0.90;;;;;;;;;;1833665;77;26359;-58
2022/03/31 04:03:18;;;;;;;0.70;0.70;;;;;;;;;;1832742;77;26296;-56
2022/03/31 04:05:45;;;;;;;0.70;0.70;;;;;;;;;;1835761;77;26831;-61
2022/03/31 04:08:14;;;;;;;1.92;0.80;;;;;;;;;;1838887;77;26273;-60
2022/03/31 04:10:41;;;;;;;0.88;0.88;;;;;;;;;;1831680;77;26789;-56
2022/03/31 04:13:09;;;;;;;0.90;0.90;;;;;;;;;;1834554;77;26287;-56
2022/03/31 04:15:36;;;;;;;0.70;0.70;;;;;;;;;;1835466;77;26677;-59
2022/03/31 04:18:06;;;;;;;0.80;0.80;;;;;;;;;;1833821;77;26485;-59
2022/03/31 04:20:33;;;;;;;0.70;0.70;;;;;;;;;;1830675;77;26408;-58
2022/03/31 04:23:01;;;;;;;0.70;0.70;;;;;;;;;;1831032;78;26717;-60
2022/03/31 04:25:28;;;;;;;0.70;0.70;;;;;;;;;;1831048;78;26282;-60
2022/03/31 04:27:56;;;;;;;0.85;0.85;;;;;;;;;;1828798;77;26285;-59
2022/03/31 04:30:24;;;;;;;0.80;0.80;;;;;;;;;;1818391;77;26728;-56
2022/03/31 04:32:51;;;;;;;0.88;0.70;;;;;;;;;;1816961;79;26310;-60
2022/03/31 04:35:19;;;;;;;0.80;0.80;;;;;;;;;;1816661;79;26235;-56
2022/03/31 04:37:47;;;;;;;1.65;0.70;;;;;;;;;;1817063;79;27804;-60
2022/03/31 04:40:14;;;;;;;1.25;0.90;;;;;;;;;;1817427;77;26298;-59
2022/03/31 04:42:42;;;;;;;0.75;0.60;;;;;;;;;;1817022;78;27247;-62
2022/03/31 04:45:10;;;;;;;0.80;0.80;;;;;;;;;;1817166;78;26312;-59
2022/03/31 04:47:38;;;;;;;0.75;0.75;;;;;;;;;;1817250;78;26287;-57
2022/03/31 04:50:05;;;;;;;1.10;0.90;;;;;;;;;;1817269;78;26365;-62
2022/03/31 04:52:34;;;;;;;0.85;0.85;;;;;;;;;;1812530;78;26769;-57
2022/03/31 04:55:01;;;;;;;0.80;0.80;;;;;;;;;;1816329;77;26295;-57
2022/03/31 04:57:28;;;;;;;0.90;0.90;;;;;;;;;;1817843;79;26282;-60
2022/03/31 04:59:55;;;;;;;1.07;0.90;;;;;;;;;;1817963;79;26271;-57
2022/03/31 05:02:23;;;;;;;0.55;0.55;;;;;;;;;;1811397;77;26318;-61
2022/03/31 05:04:50;;;;;;;0.75;0.75;;;;;;;;;;1810694;77;26385;-61
2022/03/31 05:07:18;;;;;;;0.60;0.60;;;;;;;;;;1810378;79;26796;-58
2022/03/31 05:09:45;;;;;;;1.22;0.85;;;;;;;;;;1810303;77;26401;-58
2022/03/31 05:12:13;;;;;;;0.70;0.70;;;;;;;;;;1818306;79;26349;-56
2022/03/31 05:14:41;;;;;;;0.80;0.80;;;;;;;;;;1816594;78;26757;-56
2022/03/31 05:17:08;;;;;;;2.15;0.95;;;;;;;;;;1811824;79;26267;-55
2022/03/31 05:19:35;;;;;;;1.72;0.72;;;;;;;;;;1814850;79;26298;-56
2022/03/31 05:22:03;;;;;;;0.80;0.80;;;;;;;;;;1815248;79;26371;-56
2022/03/31 05:24:30;;;;;;;1.87;1.00;;;;;;;;;;1812833;79;26267;-61
2022/03/31 05:26:57;;;;;;;3.65;0.90;;;;;;;;;;1809652;77;26305;-57
2022/03/31 05:29:25;;;;;;;2.92;0.75;;;;;;;;;;1821413;77;26345;-57
2022/03/31 05:31:53;;;;;;;1.40;0.93;;;;;;;;;;1824769;77;26298;-58
2022/03/31 05:34:21;;;;;;;0.90;0.90;;;;;;;;;;1822594;77;26297;-58
2022/03/31 05:36:49;;;;;;;1.17;0.88;;;;;;;;;;1822394;77;26302;-60
2022/03/31 05:39:16;;;;;;;2.72;0.75;;;;;;;;;;1824890;78;26374;-57
2022/03/31 05:41:43;;;;;;;1.30;0.90;;;;;;;;;;1821145;77;26691;-60
2022/03/31 05:44:11;;;;;;;0.82;0.80;;;;;;;;;;1817605;77;26927;-53
2022/03/31 05:46:39;;;;;;;1.40;0.90;;;;;;;;;;1818257;78;26309;-51
2022/03/31 05:49:06;;;;;;;4.08;1.20;;;;;;;;;;1822725;78;26823;-53
2022/03/31 05:51:33;;;;;;;2.33;0.88;;;;;;;;;;1825768;77;27282;-51
2022/03/31 05:54:03;;;;;;;2.65;0.90;;;;;;;;;;1823456;78;26270;-51
2022/03/31 05:56:30;;;;;;;2.47;0.90;;;;;;;;;;1823258;77;26238;-50
2022/03/31 05:58:57;;;;;;;1.65;0.90;;;;;;;;;;1818655;77;26434;-48
2022/03/31 06:01:24;;;;;;;0.90;0.90;;;;;;;;;;1826284;77;26432;-52
2022/03/31 06:03:55;;;;;;;1.85;0.90;;;;;;;;;;1826354;77;26276;-58
2022/03/31 06:06:21;;;;;;;0.85;0.80;;;;;;;;;;1823712;77;26929;-65
2022/03/31 06:08:48;;;;;;;2.22;0.80;;;;;;;;;;1826659;77;26820;-47
2022/03/31 06:11:16;;;;;;;3.10;0.80;;;;;;;;;;1822589;77;28805;-57
2022/03/31 06:13:43;;;;;;;3.70;0.98;;;;;;;;;;1810582;77;28304;-56
2022/03/31 06:16:11;;;;;;;13.38;1.25;;;;;;;;;;1831337;77;26266;-54
2022/03/31 06:18:39;;;;;;;1.87;1.12;;;;;;;;;;1829447;77;26343;-48
2022/03/31 06:21:06;;;;;;;0.70;0.70;;;;;;;;;;1833545;77;27449;-41
2022/03/31 06:23:34;;;;;;;1.35;0.80;;;;;;;;;;1830662;77;26262;-39
2022/03/31 06:26:02;;;;;;;1.10;1.00;;;;;;;;;;1825671;77;26254;-36
2022/03/31 06:28:31;;;;;;;1.20;0.93;;;;;;;;;;1840629;77;26404;-41
2022/03/31 06:30:58;;;;;;;1.10;0.78;;;;;;;;;;1824260;77;26337;-35
2022/03/31 06:33:25;;;;;;;3.08;1.00;;;;;;;;;;1824502;77;26815;-36
2022/03/31 06:35:53;;;;;;;3.05;0.90;;;;;;;;;;1824195;77;26744;-38
2022/03/31 06:38:20;;;;;;;1.40;0.82;;;;;;;;;;1829630;77;26284;-36
2022/03/31 06:41:33;;;;;;;2.40;0.80;;;;;;;;;;1841740;77;26458;-39
2022/03/31 06:43:17;;;;;;;1.12;0.95;;;;;;;;;;1817382;77;26364;-35
2022/03/31 06:45:44;;;;;;;1.47;1.00;;;;;;;;;;1811118;77;27231;-39
2022/03/31 06:48:11;;;;;;;1.17;0.82;;;;;;;;;;1822856;77;26288;-38
2022/03/31 06:50:40;;;;;;;1.27;0.82;;;;;;;;;;1824923;77;26307;-39
2022/03/31 06:53:08;;;;;;;2.65;0.95;;;;;;;;;;1823957;78;26876;-38
2022/03/31 06:55:35;;;;;;;3.12;0.90;;;;;;;;;;1824853;77;26225;-35
2022/03/31 06:58:02;;;;;;;2.45;1.10;;;;;;;;;;1825908;77;26294;-35
2022/03/31 07:00:29;;;;;;;2.30;0.82;;;;;;;;;;1829962;77;26278;-37
2022/03/31 07:02:57;;;;;;;1.45;0.88;;;;;;;;;;1830113;77;26403;-35
2022/03/31 07:05:25;;;;;;;1.47;0.70;;;;;;;;;;1835601;77;26238;-35
2022/03/31 07:07:52;;;;;;;1.15;1.07;;;;;;;;;;1829532;77;26282;-36
2022/03/31 07:10:21;;;;;;;2.02;1.42;;;;;;;;;;1828878;77;26490;-35
2022/03/31 07:12:49;;;;;;;0.90;0.90;;;;;;;;;;1831554;77;26931;-38
2022/03/31 07:15:17;;;;;;;2.67;0.90;;;;;;;;;;1838703;77;26330;-37
2022/03/31 07:17:44;;;;;;;0.80;0.80;;;;;;;;;;1827546;77;26359;-35
2022/03/31 07:20:12;;;;;;;0.70;0.68;;;;;;;;;;1825107;77;26538;-36
2022/03/31 07:22:46;;;;;;;0.65;0.65;;;;;;;;;;1830663;77;26251;-35
2022/03/31 07:25:16;;;;;;;0.75;0.75;;;;;;;;;;1824118;77;26296;-36
2022/03/31 07:27:45;;;;;;;1.62;0.80;;;;;;;;;;1828122;77;26695;-36
2022/03/31 07:30:13;;;;;;;1.37;0.60;;;;;;;;;;1821246;77;26916;-39
2022/03/31 07:32:47;;;;;;;0.60;0.60;;;;;;;;;;1828050;77;26817;-35
2022/03/31 07:35:15;;;;;;;0.70;0.70;;;;;;;;;;1831400;77;26285;-34
2022/03/31 07:37:42;;;;;;;0.72;0.72;;;;;;;;;;1823228;77;26275;-36
2022/03/31 07:40:11;;;;;;;0.53;0.53;;;;;;;;;;1828907;77;26302;-39
2022/03/31 07:42:38;;;;;;;0.50;0.50;;;;;;;;;;1833080;77;26973;-39
2022/03/31 07:45:06;;;;;;;0.65;0.65;;;;;;;;;;1834322;77;26762;-35
2022/03/31 07:47:33;;;;;;;0.57;0.57;;;;;;;;;;1795796;78;26690;-36
2022/03/31 07:50:00;;;;;;;0.60;0.60;;;;;;;;;;1795719;79;26917;-35
2022/03/31 07:52:27;;;;;;;3.40;0.57;;;;;;;;;;1800828;79;26735;-35
2022/03/31 07:54:55;;;;;;;0.50;0.50;;;;;;;;;;1803503;79;27352;-39
2022/03/31 07:57:22;;;;;;;0.75;0.60;;;;;;;;;;1784046;78;26363;-36
2022/03/31 07:59:49;;;;;;;0.93;0.45;;;;;;;;;;1784978;79;26376;-40
2022/03/31 08:02:16;;;;;;;0.50;0.50;;;;;;;;;;1789391;78;26340;-35
2022/03/31 08:04:44;;;;;;;0.55;0.53;;;;;;;;;;1797379;78;26801;-36
2022/03/31 08:07:11;;;;;;;0.75;0.75;;;;;;;;;;1801451;79;26283;-37
2022/03/31 08:09:38;;;;;;;0.50;0.50;;;;;;;;;;1791896;79;26317;-36
2022/03/31 08:12:07;;;;;;;0.30;0.30;;;;;;;;;;1792924;79;26734;-35
2022/03/31 08:14:34;;;;;;;0.50;0.50;;;;;;;;;;1779787;79;26317;-36
2022/03/31 08:17:02;;;;;;;0.42;0.42;;;;;;;;;;1794346;79;26242;-35
2022/03/31 08:19:32;;;;;;;1.10;0.45;;;;;;;;;;1787340;78;26318;-35
2022/03/31 08:22:04;;;;;;;0.50;0.50;;;;;;;;;;1782507;79;26301;-38
2022/03/31 08:24:30;;;;;;;0.40;0.40;;;;;;;;;;1787039;79;26313;-37
2022/03/31 08:27:01;;;;;;;0.40;0.40;;;;;;;;;;1777711;78;26321;-35
2022/03/31 08:29:28;;;;;;;0.40;0.40;;;;;;;;;;1789556;78;26344;-35
2022/03/31 08:31:56;;;;;;;0.40;0.40;;;;;;;;;;1778118;80;26324;-35
2022/03/31 08:34:23;;;;;;;1.47;0.40;;;;;;;;;;1786599;79;26372;-35
2022/03/31 08:36:50;;;;;;;0.40;0.40;;;;;;;;;;1801374;79;26263;-35
2022/03/31 08:39:17;;;;;;;0.40;0.40;;;;;;;;;;1778182;80;27387;-36
2022/03/31 08:41:45;;;;;;;0.35;0.33;;;;;;;;;;1784794;79;26286;-44
2022/03/31 08:44:13;;;;;;;0.47;0.47;;;;;;;;;;1780545;80;26332;-40
2022/03/31 08:46:41;;;;;;;0.30;0.30;;;;;;;;;;1767373;80;26602;-36
2022/03/31 08:49:09;;;;;;;0.40;0.40;;;;;;;;;;1776057;80;26772;-35
2022/03/31 08:51:36;;;;;;;0.50;0.37;;;;;;;;;;1766479;80;26430;-37
2022/03/31 08:54:04;;;;;;;0.30;0.30;;;;;;;;;;1799737;78;26748;-40
2022/03/31 08:56:32;;;;;;;0.45;0.40;;;;;;;;;;1799145;78;26392;-37
2022/03/31 08:59:00;;;;;;;0.40;0.40;;;;;;;;;;1811507;78;27173;-39
2022/03/31 09:01:30;;;;;;;0.40;0.40;;;;;;;;;;1778231;79;26280;-40
2022/03/31 09:03:57;;;;;;;0.40;0.40;;;;;;;;;;1779604;79;26297;-37
2022/03/31 09:06:28;;;;;;;0.25;0.25;;;;;;;;;;1769486;79;25821;-41
2022/03/31 09:08:55;;;;;;;0.30;0.30;;;;;;;;;;1771967;79;26285;-42
2022/03/31 09:11:27;;;;;;;0.40;0.40;;;;;;;;;;1792288;79;26312;-38
2022/03/31 09:13:55;;;;;;;0.35;0.30;;;;;;;;;;1792133;79;25751;-39
2022/03/31 09:16:24;;;;;;;0.28;0.28;;;;;;;;;;1795591;79;26312;-35
2022/03/31 09:18:53;;;;;;;0.20;0.20;;;;;;;;;;1788475;79;26290;-38
2022/03/31 09:21:22;;;;;;;0.47;0.30;;;;;;;;;;1793007;79;26313;-36
2022/03/31 09:23:49;;;;;;;0.90;0.40;;;;;;;;;;1781414;79;26372;-39
2022/03/31 09:26:17;;;;;;;0.30;0.30;;;;;;;;;;1788712;79;26412;-36
2022/03/31 09:28:45;;;;;;;0.30;0.30;;;;;;;;;;1785515;79;26297;-38
2022/03/31 09:31:13;;;;;;;0.30;0.30;;;;;;;;;;1782877;80;26445;-35
2022/03/31 09:33:44;;;;;;;0.82;0.50;;;;;;;;;;1795321;79;26293;-39
2022/03/31 09:36:14;;;;;;;0.30;0.30;;;;;;;;;;1785501;79;26784;-36
2022/03/31 09:38:43;;;;;;;0.30;0.30;;;;;;;;;;1790571;79;26391;-39
2022/03/31 09:41:20;;;;;;;0.37;0.37;;;;;;;;;;1788335;79;26760;-36
2022/03/31 09:43:48;;;;;;;0.40;0.40;;;;;;;;;;1799567;79;26295;-36
2022/03/31 09:46:26;;;;;;;0.33;0.33;;;;;;;;;;1798327;79;26353;-40
2022/03/31 09:48:54;;;;;;;0.40;0.40;;;;;;;;;;1776375;79;29481;-39
2022/03/31 09:51:22;;;;;;;0.45;0.45;;;;;;;;;;1793164;79;26254;-36
2022/03/31 09:53:51;;;;;;;0.82;0.60;;;;;;;;;;1794689;79;27377;-37
2022/03/31 09:56:20;;;;;;;0.30;0.30;;;;;;;;;;1792359;79;26294;-38
2022/03/31 09:58:48;;;;;;;2.60;0.60;;;;;;;;;;1791291;79;26328;-36
2022/03/31 10:01:16;;;;;;;0.50;0.50;;;;;;;;;;1795715;79;26301;-37
2022/03/31 10:03:43;;;;;;;0.50;0.50;;;;;;;;;;1793462;79;26426;-39
2022/03/31 10:06:12;;;;;;;1.90;0.30;;;;;;;;;;1792586;79;26313;-43
2022/03/31 10:08:44;;;;;;;0.40;0.40;;;;;;;;;;1788390;79;26301;-36
2022/03/31 10:11:12;;;;;;;1.12;0.40;;;;;;;;;;1794276;79;26321;-36
2022/03/31 10:13:42;;;;;;;0.45;0.45;;;;;;;;;;1798903;79;26357;-36
2022/03/31 10:16:13;;;;;;;0.45;0.45;;;;;;;;;;1784200;79;26336;-38
2022/03/31 10:18:40;;;;;;;0.50;0.50;;;;;;;;;;1792282;79;26288;-36
2022/03/31 10:21:08;;;;;;;0.30;0.30;;;;;;;;;;1793774;79;26640;-36
2022/03/31 10:26:27;;;;;;;0.30;0.30;;;;;;;;;;1791439;79;26407;-38
2022/03/31 10:28:59;;;;;;;0.65;0.42;;;;;;;;;;1793153;79;26345;-37
2022/03/31 10:31:40;;;;;;;0.40;0.40;;;;;;;;;;1792953;78;26301;-36
2022/03/31 10:34:08;;;;;;;0.60;0.60;;;;;;;;;;1796347;79;26738;-36
2022/03/31 10:36:47;;;;;;;4.22;0.53;;;;;;;;;;1801646;79;26324;-34
2022/03/31 10:39:19;;;;;;;3.62;0.78;;;;;;;;;;1799244;78;26366;-34
2022/03/31 10:41:47;;;;;;;2.83;0.68;;;;;;;;;;1798768;78;26756;-36
2022/03/31 10:44:16;;;;;;;6.30;0.65;;;;;;;;;;1807185;78;26267;-35
2022/03/31 10:46:44;;;;;;;2.05;0.68;;;;;;;;;;1796973;78;26293;-35
2022/03/31 10:49:13;;;;;;;1.37;0.60;;;;;;;;;;1794916;78;26288;-35
2022/03/31 10:51:41;;;;;;;4.03;0.60;;;;;;;;;;1795419;78;26313;-35
2022/03/31 10:54:11;;;;;;;3.05;0.80;;;;;;;;;;1791098;79;26536;-35
2022/03/31 10:56:40;;;;;;;0.57;0.50;;;;;;;;;;1794240;78;26359;-35
2022/03/31 10:59:07;;;;;;;1.30;0.60;;;;;;;;;;1794599;78;26325;-36
2022/03/31 11:01:37;;;;;;;2.83;0.60;;;;;;;;;;1796004;78;26293;-35
2022/03/31 11:04:07;;;;;;;0.93;0.70;;;;;;;;;;1801063;78;26281;-35
2022/03/31 11:06:35;;;;;;;1.02;0.60;;;;;;;;;;1788426;79;26368;-35
2022/03/31 11:09:03;;;;;;;1.65;0.57;;;;;;;;;;1799056;78;26286;-35
2022/03/31 11:11:30;;;;;;;0.65;0.50;;;;;;;;;;1809556;78;26250;-38
2022/03/31 11:13:58;;;;;;;1.98;0.55;;;;;;;;;;1790659;78;26289;-40
2022/03/31 11:16:38;;;;;;;1.25;0.60;;;;;;;;;;1790299;78;26828;-34
2022/03/31 11:19:07;;;;;;;2.27;0.47;;;;;;;;;;1800250;78;27069;-35
2022/03/31 11:21:36;;;;;;;0.57;0.40;;;;;;;;;;1821834;78;26726;-38
2022/03/31 11:24:05;;;;;;;2.70;0.60;;;;;;;;;;1808684;78;26768;-34
2022/03/31 11:26:34;;;;;;;2.55;0.50;;;;;;;;;;1807681;78;26788;-37
2022/03/31 11:29:03;;;;;;;3.05;0.68;;;;;;;;;;1801570;78;26310;-35
2022/03/31 11:31:31;;;;;;;0.72;0.57;;;;;;;;;;1819773;78;26227;-35
2022/03/31 11:33:58;;;;;;;0.37;0.37;;;;;;;;;;1801501;77;26435;-37
2022/03/31 11:36:25;;;;;;;1.55;0.47;;;;;;;;;;1796719;78;26369;-35
2022/03/31 11:38:57;;;;;;;0.72;0.40;;;;;;;;;;1801427;78;26254;-34
2022/03/31 11:41:24;;;;;;;0.65;0.40;;;;;;;;;;1808252;78;26392;-35
2022/03/31 11:43:56;;;;;;;0.82;0.42;;;;;;;;;;1803222;78;26300;-38
2022/03/31 11:46:23;;;;;;;1.05;0.50;;;;;;;;;;1791336;78;26830;-35
2022/03/31 11:48:52;;;;;;;0.40;0.40;;;;;;;;;;1794964;78;26764;-36
2022/03/31 11:51:20;;;;;;;0.33;0.33;;;;;;;;;;1793618;78;26292;-35
2022/03/31 11:53:48;;;;;;;0.70;0.45;;;;;;;;;;1780267;78;26493;-36
2022/03/31 11:56:18;;;;;;;0.28;0.28;;;;;;;;;;1802958;78;26314;-37
2022/03/31 11:58:47;;;;;;;0.40;0.40;;;;;;;;;;1786166;78;26267;-36
2022/03/31 12:01:15;;;;;;;1.27;0.47;;;;;;;;;;1793638;79;26674;-35
2022/03/31 12:03:42;;;;;;;2.65;0.37;;;;;;;;;;1796203;78;26281;-40
2022/03/31 12:06:10;;;;;;;1.42;0.30;;;;;;;;;;1797134;78;26289;-36
2022/03/31 12:08:39;;;;;;;0.78;0.60;;;;;;;;;;1786560;79;26755;-35
2022/03/31 12:11:07;;;;;;;0.23;0.23;;;;;;;;;;1809889;78;26714;-35
2022/03/31 12:13:35;;;;;;;0.53;0.35;;;;;;;;;;1806795;78;26297;-40
2022/03/31 12:16:07;;;;;;;0.40;0.40;;;;;;;;;;1794366;78;26403;-46
2022/03/31 12:18:37;;;;;;;1.45;0.60;;;;;;;;;;1791152;79;26295;-41
2022/03/31 12:21:06;;;;;;;0.50;0.50;;;;;;;;;;1788047;78;26359;-38
2022/03/31 12:23:35;;;;;;;4.80;0.70;;;;;;;;;;1796346;78;26297;-37
2022/03/31 12:26:03;;;;;;;1.65;0.40;;;;;;;;;;1798332;78;26341;-36
2022/03/31 12:28:32;;;;;;;2.92;0.50;;;;;;;;;;1785978;78;26287;-37
2022/03/31 12:31:00;;;;;;;0.40;0.40;;;;;;;;;;1788235;78;26748;-36
2022/03/31 12:33:30;;;;;;;1.37;0.57;;;;;;;;;;1797366;78;26853;-36
2022/03/31 12:36:02;;;;;;;2.37;0.40;;;;;;;;;;1789969;79;26313;-39
2022/03/31 12:38:33;;;;;;;0.90;0.50;;;;;;;;;;1796570;79;26313;-38
2022/03/31 12:41:00;;;;;;;0.28;0.28;;;;;;;;;;1789798;79;26308;-38
2022/03/31 12:43:28;;;;;;;0.40;0.40;;;;;;;;;;1795537;79;26293;-36
2022/03/31 12:45:55;;;;;;;2.42;0.30;;;;;;;;;;1793328;79;26302;-36
2022/03/31 12:48:23;;;;;;;0.75;0.40;;;;;;;;;;1791995;79;26289;-36
2022/03/31 12:50:52;;;;;;;2.10;0.45;;;;;;;;;;1793783;79;26295;-36
2022/03/31 12:53:20;;;;;;;1.02;0.40;;;;;;;;;;1790440;79;26277;-40
2022/03/31 12:55:49;;;;;;;1.00;0.40;;;;;;;;;;1791052;79;26843;-36
2022/03/31 12:58:16;;;;;;;1.20;0.40;;;;;;;;;;1801713;79;26761;-39
2022/03/31 13:00:45;;;;;;;4.22;0.50;;;;;;;;;;1801504;79;26368;-36
2022/03/31 13:03:12;;;;;;;0.30;0.30;;;;;;;;;;1801308;79;26720;-39
2022/03/31 13:05:40;;;;;;;0.40;0.30;;;;;;;;;;1797602;79;26289;-38
2022/03/31 13:08:07;;;;;;;2.40;0.53;;;;;;;;;;1793706;79;26329;-37
2022/03/31 13:10:34;;;;;;;1.80;0.47;;;;;;;;;;1791974;79;26395;-40
2022/03/31 13:13:03;;;;;;;0.35;0.35;;;;;;;;;;1790894;79;26356;-37
2022/03/31 13:15:31;;;;;;;0.90;0.40;;;;;;;;;;1794034;79;26305;-39
2022/03/31 13:17:59;;;;;;;0.40;0.40;;;;;;;;;;1791154;80;26277;-37
2022/03/31 13:20:28;;;;;;;0.30;0.30;;;;;;;;;;1791551;79;26189;-39
2022/03/31 13:22:55;;;;;;;1.65;0.40;;;;;;;;;;1808570;79;26289;-37
2022/03/31 13:25:22;;;;;;;0.75;0.75;;;;;;;;;;1793354;79;26334;-36
2022/03/31 13:27:50;;;;;;;0.57;0.30;;;;;;;;;;1816745;79;26298;-37
2022/03/31 13:30:17;;;;;;;0.57;0.37;;;;;;;;;;1793309;79;26939;-37
2022/03/31 13:32:45;;;;;;;0.30;0.30;;;;;;;;;;1801533;78;26324;-39
2022/03/31 13:35:13;;;;;;;0.45;0.45;;;;;;;;;;1808488;79;26390;-39
2022/03/31 13:37:41;;;;;;;0.45;0.33;;;;;;;;;;1786013;79;26257;-38
2022/03/31 13:40:09;;;;;;;1.10;0.35;;;;;;;;;;1790652;79;26308;-36
2022/03/31 13:42:40;;;;;;;0.75;0.20;;;;;;;;;;1803633;79;26678;-36
2022/03/31 13:45:11;;;;;;;0.30;0.30;;;;;;;;;;1796424;79;27412;-38
2022/03/31 13:47:37;;;;;;;0.40;0.30;;;;;;;;;;1796275;79;26293;-36
2022/03/31 13:50:05;;;;;;;0.40;0.40;;;;;;;;;;1790993;79;26312;-36
2022/03/31 13:52:32;;;;;;;0.23;0.23;;;;;;;;;;1799966;79;26850;-37
2022/03/31 13:54:59;;;;;;;0.28;0.28;;;;;;;;;;1801517;79;26845;-38
2022/03/31 14:02:59;;;;;;;0.40;0.40;;;;;;;;;;1801354;79;26758;-35
2022/03/31 14:05:26;;;;;;;0.85;0.30;;;;;;;;;;1791746;79;26353;-37
2022/03/31 14:07:55;;;;;;;0.30;0.30;;;;;;;;;;1803230;79;26355;-40
2022/03/31 14:10:23;;;;;;;0.40;0.40;;;;;;;;;;1803132;79;26900;-37
2022/03/31 14:12:50;;;;;;;0.62;0.20;;;;;;;;;;1794097;79;26436;-41
2022/03/31 14:15:18;;;;;;;0.57;0.40;;;;;;;;;;1792287;79;26310;-38
2022/03/31 14:17:45;;;;;;;0.30;0.30;;;;;;;;;;1783094;79;26297;-37
2022/03/31 14:20:12;;;;;;;0.20;0.20;;;;;;;;;;1791124;80;26296;-36
2022/03/31 14:22:40;;;;;;;0.30;0.30;;;;;;;;;;1792561;79;26329;-36
2022/03/31 14:25:09;;;;;;;0.20;0.20;;;;;;;;;;1789710;79;26285;-36
2022/03/31 14:27:37;;;;;;;0.20;0.20;;;;;;;;;;1793257;79;26371;-35
2022/03/31 14:30:05;;;;;;;1.98;0.33;;;;;;;;;;1796484;79;26333;-37
2022/03/31 14:32:32;;;;;;;0.23;0.23;;;;;;;;;;1795696;79;26280;-37
2022/03/31 14:35:00;;;;;;;0.10;0.10;;;;;;;;;;1793977;79;26328;-39
2022/03/31 14:37:27;;;;;;;0.20;0.20;;;;;;;;;;1790247;79;26726;-36
2022/03/31 14:39:55;;;;;;;0.33;0.30;;;;;;;;;;1793488;79;26344;-37
2022/03/31 14:42:22;;;;;;;0.55;0.33;;;;;;;;;;1791221;79;26289;-37
2022/03/31 14:44:49;;;;;;;0.33;0.33;;;;;;;;;;1789264;79;26285;-38
2022/03/31 14:47:16;;;;;;;0.23;0.20;;;;;;;;;;1798825;79;26378;-36
2022/03/31 14:49:44;;;;;;;0.62;0.30;;;;;;;;;;1793399;79;26304;-44
2022/03/31 14:52:11;;;;;;;0.55;0.30;;;;;;;;;;1793361;79;26388;-36
2022/03/31 14:54:38;;;;;;;0.72;0.30;;;;;;;;;;1788704;79;26363;-37
2022/03/31 14:57:06;;;;;;;0.20;0.20;;;;;;;;;;1789864;80;26381;-36
2022/03/31 14:59:33;;;;;;;3.83;0.30;;;;;;;;;;1797380;79;26356;-36